createdAt,value
2022-08-22T00:02:09.623Z,7.60
2022-08-22T00:02:47.467Z,3.78
2022-08-22T00:02:47.979Z,4.07
2022-08-22T00:03:07.953Z,5.22
2022-08-22T00:03:12.457Z,5.38
2022-08-22T00:04:57.212Z,7.35
2022-08-22T00:07:46.590Z,7.32
2022-08-22T00:10:25.912Z,7.00
2022-08-22T00:12:58.407Z,6.97
2022-08-22T00:15:43.444Z,7.15
2022-08-22T00:18:18.468Z,7.40
2022-08-22T00:21:16.993Z,7.30
2022-08-22T00:24:00.706Z,6.85
2022-08-22T00:26:30.374Z,7.35
2022-08-22T00:29:03.724Z,7.20
2022-08-22T00:31:40.033Z,7.20
2022-08-22T00:34:32.857Z,7.07
2022-08-22T00:37:04.674Z,7.20
2022-08-22T00:39:46.651Z,7.13
2022-08-22T00:42:31.666Z,7.32
2022-08-22T00:45:20.545Z,7.05
2022-08-22T00:47:56.957Z,7.40
2022-08-22T00:50:38.928Z,7.25
2022-08-22T00:53:37.040Z,7.22
2022-08-22T00:56:24.969Z,7.05
2022-08-22T00:59:31.372Z,7.25
2022-08-22T01:02:14.462Z,6.80
2022-08-22T01:05:02.820Z,6.85
2022-08-22T01:07:51.021Z,7.40
2022-08-22T01:10:39.169Z,7.25
2022-08-22T01:13:39.953Z,7.25
2022-08-22T01:16:25.344Z,7.25
2022-08-22T01:18:52.557Z,6.57
2022-08-22T01:21:51.711Z,6.90
2022-08-22T01:25:02.811Z,6.35
2022-08-22T01:27:59.357Z,6.75
2022-08-22T01:30:39.251Z,7.43
2022-08-22T01:33:36.957Z,6.82
2022-08-22T01:36:12.497Z,7.28
2022-08-22T01:38:58.508Z,6.93
2022-08-22T01:41:46.754Z,7.28
2022-08-22T01:44:32.330Z,6.90
2022-08-22T01:47:36.809Z,7.28
2022-08-22T01:50:26.482Z,6.78
2022-08-22T01:53:05.088Z,6.90
2022-08-22T01:55:52.435Z,6.40
2022-08-22T01:58:27.358Z,7.07
2022-08-22T02:01:08.908Z,6.95
2022-08-22T02:03:40.358Z,7.25
2022-08-22T02:06:17.329Z,7.30
2022-08-22T02:08:57.048Z,7.13
2022-08-22T02:11:48.276Z,6.57
2022-08-22T02:14:33.332Z,6.68
2022-08-22T02:17:26.488Z,6.22
2022-08-22T02:20:20.260Z,7.03
2022-08-22T02:22:53.127Z,6.90
2022-08-22T02:25:28.968Z,6.90
2022-08-22T02:28:15.829Z,6.47
2022-08-22T02:30:50.933Z,6.40
2022-08-22T02:33:47.800Z,6.95
2022-08-22T02:36:31.705Z,7.65
2022-08-22T02:39:18.142Z,6.97
2022-08-22T02:41:49.395Z,7.70
2022-08-22T02:44:22.391Z,7.30
2022-08-22T02:47:07.009Z,6.88
2022-08-22T02:49:43.808Z,7.18
2022-08-22T02:52:18.108Z,7.50
2022-08-22T02:54:55.702Z,6.43
2022-08-22T02:57:58.953Z,6.85
2022-08-22T03:00:32.688Z,7.20
2022-08-22T03:03:14.543Z,7.25
2022-08-22T03:05:50.668Z,6.60
2022-08-22T03:08:21.690Z,6.80
2022-08-22T03:11:14.406Z,6.78
2022-08-22T03:14:10.264Z,6.72
2022-08-22T03:17:03.506Z,6.63
2022-08-22T03:20:00.564Z,7.68
2022-08-22T03:22:36.203Z,6.95
2022-08-22T03:25:42.811Z,6.90
2022-08-22T03:28:18.385Z,7.05
2022-08-22T03:30:57.870Z,6.47
2022-08-22T03:33:31.036Z,7.28
2022-08-22T03:36:06.625Z,6.72
2022-08-22T03:38:33.248Z,6.82
2022-08-22T03:41:03.273Z,7.55
2022-08-22T03:43:57.209Z,6.90
2022-08-22T03:46:35.125Z,6.78
2022-08-22T03:49:24.233Z,7.18
2022-08-22T03:52:13.891Z,7.45
2022-08-22T03:54:43.890Z,6.65
2022-08-22T03:57:32.065Z,6.60
2022-08-22T04:00:11.389Z,7.15
2022-08-22T04:03:14.823Z,6.93
2022-08-22T04:05:56.946Z,6.50
2022-08-22T04:11:09.779Z,6.18
2022-08-22T04:14:04.348Z,6.85
2022-08-22T04:16:43.340Z,7.07
2022-08-22T04:19:32.802Z,6.78
2022-08-22T04:22:02.749Z,6.97
2022-08-22T04:25:07.615Z,7.50
2022-08-22T04:28:03.110Z,7.03
2022-08-22T04:30:44.479Z,7.07
2022-08-22T04:33:49.979Z,6.97
2022-08-22T04:36:23.551Z,6.40
2022-08-22T04:39:13.149Z,6.68
2022-08-22T04:42:00.737Z,6.50
2022-08-22T04:44:37.685Z,6.72
2022-08-22T04:47:31.077Z,6.53
2022-08-22T04:50:16.544Z,6.07
2022-08-22T04:53:07.798Z,6.03
2022-08-22T04:55:46.741Z,5.90
2022-08-22T04:58:22.852Z,5.97
2022-08-22T05:01:26.869Z,5.43
2022-08-22T05:04:03.267Z,6.07
2022-08-22T05:06:35.449Z,5.68
2022-08-22T05:11:35.291Z,5.97
2022-08-22T05:14:07.167Z,6.38
2022-08-22T05:16:39.605Z,6.07
2022-08-22T05:19:28.433Z,5.72
2022-08-22T05:21:58.366Z,6.57
2022-08-22T05:24:40.943Z,6.43
2022-08-22T05:27:16.294Z,5.82
2022-08-22T05:29:48.737Z,6.20
2022-08-22T05:32:26.285Z,5.63
2022-08-22T05:34:59.551Z,7.05
2022-08-22T05:37:41.774Z,6.15
2022-08-22T05:42:38.071Z,5.90
2022-08-22T05:45:11.572Z,6.15
2022-08-22T05:47:44.688Z,5.90
2022-08-22T05:50:13.969Z,5.68
2022-08-22T05:53:08.000Z,5.90
2022-08-22T05:55:57.311Z,5.70
2022-08-22T05:58:38.868Z,5.72
2022-08-22T06:01:14.842Z,5.57
2022-08-22T06:04:07.977Z,5.50
2022-08-22T06:06:41.827Z,5.68
2022-08-22T06:09:24.631Z,5.63
2022-08-22T06:12:16.497Z,5.78
2022-08-22T06:15:11.825Z,5.88
2022-08-22T06:17:48.134Z,5.20
2022-08-22T06:20:26.426Z,5.18
2022-08-22T06:23:00.535Z,5.85
2022-08-22T06:25:37.904Z,5.38
2022-08-22T06:28:09.562Z,5.50
2022-08-22T06:30:39.670Z,5.43
2022-08-22T06:33:16.353Z,5.28
2022-08-22T06:36:11.890Z,5.20
2022-08-22T06:38:53.901Z,4.78
2022-08-22T06:43:54.952Z,5.63
2022-08-22T06:46:26.377Z,5.88
2022-08-22T06:48:56.136Z,5.78
2022-08-22T06:51:29.689Z,6.60
2022-08-22T06:54:01.913Z,5.80
2022-08-22T06:56:35.750Z,6.55
2022-08-22T06:59:07.983Z,6.07
2022-08-22T07:01:45.658Z,6.10
2022-08-22T07:04:12.824Z,6.45
2022-08-22T07:06:44.264Z,5.97
2022-08-22T07:09:32.657Z,6.13
2022-08-22T07:12:03.116Z,6.00
2022-08-22T07:14:41.030Z,6.10
2022-08-22T07:17:15.912Z,6.30
2022-08-22T07:19:54.309Z,5.68
2022-08-22T07:22:32.590Z,6.22
2022-08-22T07:25:09.027Z,6.55
2022-08-22T07:27:45.125Z,5.57
2022-08-22T07:30:27.988Z,6.25
2022-08-22T07:33:25.232Z,5.82
2022-08-22T07:36:01.988Z,5.68
2022-08-22T07:38:45.615Z,6.53
2022-08-22T07:41:12.406Z,6.00
2022-08-22T07:43:47.941Z,5.38
2022-08-22T07:46:14.555Z,5.97
2022-08-22T07:49:12.140Z,5.43
2022-08-22T07:51:45.201Z,5.93
2022-08-22T07:54:17.177Z,6.47
2022-08-22T07:56:57.816Z,5.35
2022-08-22T07:59:27.257Z,5.53
2022-08-22T08:01:57.550Z,5.38
2022-08-22T08:04:30.492Z,5.65
2022-08-22T08:07:00.796Z,5.50
2022-08-22T08:09:33.147Z,4.82
2022-08-22T08:12:02.745Z,4.90
2022-08-22T08:14:31.281Z,4.13
2022-08-22T08:16:57.942Z,4.55
2022-08-22T08:19:25.451Z,4.30
2022-08-22T08:21:55.437Z,3.78
2022-08-22T08:24:43.203Z,4.47
2022-08-22T08:27:36.904Z,4.32
2022-08-22T08:30:16.547Z,4.45
2022-08-22T08:32:48.909Z,4.82
2022-08-22T08:35:23.580Z,4.25
2022-08-22T08:38:09.596Z,4.13
2022-08-22T08:40:56.487Z,4.65
2022-08-22T08:43:51.195Z,4.20
2022-08-22T08:46:55.124Z,4.00
2022-08-22T08:49:35.221Z,4.03
2022-08-22T08:52:26.500Z,2.75
2022-08-22T08:55:40.889Z,2.47
2022-08-22T08:58:29.310Z,2.22
2022-08-22T09:01:11.486Z,2.38
2022-08-22T09:04:15.675Z,1.90
2022-08-22T09:06:56.745Z,2.08
2022-08-22T09:09:46.346Z,2.13
2022-08-22T09:12:52.225Z,1.80
2022-08-22T09:16:05.280Z,1.98
2022-08-22T09:19:20.662Z,2.15
2022-08-22T09:22:14.285Z,2.08
2022-08-22T09:25:06.299Z,2.38
2022-08-22T09:30:11.660Z,2.22
2022-08-22T09:33:06.393Z,2.05
2022-08-22T09:35:38.848Z,2.38
2022-08-22T09:38:20.780Z,2.22
2022-08-22T09:41:00.208Z,2.33
2022-08-22T09:43:46.576Z,2.38
2022-08-22T09:46:32.154Z,2.35
2022-08-22T09:49:13.402Z,1.95
2022-08-22T09:51:50.636Z,2.10
2022-08-22T09:54:33.664Z,2.17
2022-08-22T09:57:00.847Z,1.80
2022-08-22T10:00:05.168Z,2.17
2022-08-22T10:02:44.127Z,1.95
2022-08-22T10:05:40.658Z,1.92
2022-08-22T10:08:31.737Z,2.17
2022-08-22T10:11:13.536Z,2.25
2022-08-22T10:14:22.273Z,1.88
2022-08-22T10:17:08.147Z,1.90
2022-08-22T10:20:14.039Z,2.38
2022-08-22T10:23:00.853Z,1.80
2022-08-22T10:25:42.111Z,2.00
2022-08-22T10:28:25.184Z,1.80
2022-08-22T10:31:09.873Z,2.03
2022-08-22T10:33:47.469Z,1.63
2022-08-22T10:36:21.006Z,1.70
2022-08-22T10:38:57.861Z,1.58
2022-08-22T10:41:58.705Z,2.42
2022-08-22T10:44:34.645Z,2.08
2022-08-22T10:47:13.609Z,2.15
2022-08-22T10:49:52.148Z,2.22
2022-08-22T10:52:26.972Z,2.15
2022-08-22T10:55:09.739Z,2.00
2022-08-22T10:57:52.131Z,2.33
2022-08-22T11:00:46.609Z,1.80
2022-08-22T11:03:28.245Z,2.08
2022-08-22T11:06:00.517Z,1.73
2022-08-22T11:08:49.009Z,1.83
2022-08-22T11:11:32.941Z,2.15
2022-08-22T11:14:37.196Z,2.08
2022-08-22T11:17:30.917Z,1.80
2022-08-22T11:20:19.438Z,1.60
2022-08-22T11:23:37.554Z,1.80
2022-08-22T11:26:33.737Z,1.70
2022-08-22T11:29:26.697Z,1.60
2022-08-22T11:32:32.146Z,1.90
2022-08-22T11:35:01.461Z,1.70
2022-08-22T11:37:43.266Z,1.83
2022-08-22T11:40:32.301Z,1.70
2022-08-22T11:43:32.755Z,1.75
2022-08-22T11:46:14.069Z,1.80
2022-08-22T11:49:10.845Z,1.70
2022-08-22T11:51:49.732Z,1.48
2022-08-22T11:54:42.286Z,1.35
2022-08-22T11:57:20.689Z,1.58
2022-08-22T12:00:13.058Z,1.40
2022-08-22T12:02:57.611Z,1.73
2022-08-22T12:05:32.959Z,1.60
2022-08-22T12:08:21.268Z,1.83
2022-08-22T12:11:08.389Z,1.40
2022-08-22T12:14:06.593Z,2.08
2022-08-22T12:16:42.606Z,1.85
2022-08-22T12:19:17.766Z,1.77
2022-08-22T12:21:49.701Z,1.45
2022-08-22T12:24:22.579Z,1.90
2022-08-22T12:27:06.520Z,1.50
2022-08-22T12:29:59.800Z,1.83
2022-08-22T12:35:29.698Z,2.33
2022-08-22T12:38:27.894Z,1.77
2022-08-22T12:41:35.410Z,1.80
2022-08-22T12:44:02.148Z,5.05
2022-08-22T12:46:57.293Z,2.00
2022-08-22T12:49:45.010Z,1.70
2022-08-22T12:52:28.222Z,1.92
2022-08-22T12:55:04.104Z,2.38
2022-08-22T12:57:59.380Z,1.88
2022-08-22T13:00:34.885Z,1.75
2022-08-22T13:03:32.143Z,2.10
2022-08-22T13:06:05.363Z,1.80
2022-08-22T13:08:40.390Z,1.70
2022-08-22T13:11:22.256Z,1.85
2022-08-22T13:13:56.410Z,2.03
2022-08-22T13:16:26.525Z,2.05
2022-08-22T13:18:57.695Z,2.00
2022-08-22T13:21:36.039Z,1.90
2022-08-22T13:24:38.744Z,2.10
2022-08-22T13:27:15.778Z,1.80
2022-08-22T13:29:51.516Z,1.60
2022-08-22T13:32:26.358Z,1.70
2022-08-22T13:34:57.158Z,1.88
2022-08-22T13:37:44.363Z,1.30
2022-08-22T13:40:21.750Z,1.83
2022-08-22T13:42:54.564Z,1.60
2022-08-22T13:45:29.329Z,1.88
2022-08-22T13:48:03.794Z,1.52
2022-08-22T13:50:37.459Z,1.67
2022-08-22T13:53:39.095Z,1.60
2022-08-22T13:56:15.618Z,1.60
2022-08-22T13:58:50.221Z,1.55
2022-08-22T14:01:25.542Z,1.98
2022-08-22T14:04:32.313Z,1.48
2022-08-22T14:07:03.365Z,1.63
2022-08-22T14:09:49.157Z,1.45
2022-08-22T14:12:56.464Z,1.50
2022-08-22T14:15:32.273Z,1.40
2022-08-22T14:18:15.889Z,1.55
2022-08-22T14:20:47.518Z,1.73
2022-08-22T14:23:27.035Z,1.58
2022-08-22T14:25:55.537Z,1.83
2022-08-22T14:28:31.332Z,1.52
2022-08-22T14:31:14.320Z,1.83
2022-08-22T14:33:52.763Z,1.55
2022-08-22T14:36:23.608Z,1.73
2022-08-22T14:39:02.311Z,1.67
2022-08-22T14:41:55.653Z,1.48
2022-08-22T14:44:52.764Z,1.52
2022-08-22T14:48:09.999Z,2.20
2022-08-22T14:50:43.621Z,1.77
2022-08-22T14:53:25.020Z,1.80
2022-08-22T14:58:26.230Z,1.60
2022-08-22T15:00:56.620Z,1.70
2022-08-22T15:03:29.711Z,1.92
2022-08-22T15:06:01.606Z,1.60
2022-08-22T15:08:49.892Z,1.75
2022-08-22T15:11:22.476Z,1.73
2022-08-22T15:14:12.535Z,2.13
2022-08-22T15:16:57.099Z,2.10
2022-08-22T15:19:33.024Z,2.20
2022-08-22T15:22:15.079Z,1.80
2022-08-22T15:24:47.433Z,2.20
2022-08-22T15:27:19.526Z,1.38
2022-08-22T15:29:55.579Z,1.60
2022-08-22T15:32:27.820Z,2.40
2022-08-22T15:35:13.871Z,1.77
2022-08-22T15:38:05.263Z,1.70
2022-08-22T15:40:35.056Z,1.55
2022-08-22T15:43:22.627Z,2.03
2022-08-22T15:46:07.153Z,1.52
2022-08-22T15:48:39.157Z,2.03
2022-08-22T15:51:13.531Z,2.30
2022-08-22T15:54:03.368Z,1.95
2022-08-22T15:57:18.517Z,1.63
2022-08-22T15:59:54.037Z,1.40
2022-08-22T16:02:34.887Z,1.50
2022-08-22T16:05:22.354Z,1.70
2022-08-22T16:07:58.254Z,1.90
2022-08-22T16:10:24.938Z,2.08
2022-08-22T16:13:13.697Z,1.50
2022-08-22T16:15:54.387Z,1.70
2022-08-22T16:18:37.104Z,1.63
2022-08-22T16:21:11.172Z,1.73
2022-08-22T16:23:49.937Z,1.80
2022-08-22T16:26:28.700Z,1.55
2022-08-22T16:29:14.781Z,1.88
2022-08-22T16:31:44.532Z,1.40
2022-08-22T16:34:17.411Z,1.58
2022-08-22T16:36:47.268Z,1.80
2022-08-22T16:39:23.110Z,1.98
2022-08-22T16:42:22.329Z,2.38
2022-08-22T16:44:50.187Z,2.25
2022-08-22T16:47:43.038Z,1.55
2022-08-22T16:53:08.993Z,1.63
2022-08-22T16:55:58.395Z,2.25
2022-08-22T16:59:06.046Z,1.98
2022-08-22T17:02:07.116Z,1.70
2022-08-22T17:04:56.808Z,1.60
2022-08-22T17:07:57.267Z,2.10
2022-08-22T17:10:34.214Z,2.22
2022-08-22T17:13:06.888Z,1.95
2022-08-22T17:16:02.030Z,1.75
2022-08-22T17:18:31.582Z,1.50
2022-08-22T17:21:51.661Z,1.80
2022-08-22T17:24:40.732Z,1.63
2022-08-22T17:27:16.095Z,1.42
2022-08-22T17:30:07.191Z,1.58
2022-08-22T17:32:44.520Z,2.03
2022-08-22T17:35:24.946Z,1.77
2022-08-22T17:38:17.191Z,2.03
2022-08-22T17:41:01.833Z,1.98
2022-08-22T17:43:58.505Z,1.75
2022-08-22T17:46:31.076Z,1.70
2022-08-22T17:49:16.561Z,2.08
2022-08-22T17:51:55.007Z,2.08
2022-08-22T17:54:33.148Z,2.35
2022-08-22T17:57:05.716Z,2.05
2022-08-22T17:59:51.330Z,1.92
2022-08-22T18:02:42.806Z,1.85
2022-08-22T18:05:28.580Z,1.60
2022-08-22T18:11:40.190Z,2.10
2022-08-22T18:14:13.144Z,2.22
2022-08-22T18:16:47.180Z,2.00
2022-08-22T18:19:44.393Z,1.80
2022-08-22T18:22:22.329Z,1.80
2022-08-22T18:25:01.104Z,1.95
2022-08-22T18:27:38.397Z,1.83
2022-08-22T18:30:20.439Z,1.98
2022-08-22T18:33:01.961Z,2.00
2022-08-22T18:35:39.563Z,1.88
2022-08-22T18:38:20.006Z,2.17
2022-08-22T18:40:57.301Z,2.10
2022-08-22T18:43:40.112Z,1.85
2022-08-22T18:46:26.625Z,2.35
2022-08-22T18:49:14.102Z,2.13
2022-08-22T18:51:41.719Z,2.33
2022-08-22T18:54:08.295Z,1.80
2022-08-22T18:56:49.916Z,1.60
2022-08-22T18:59:40.815Z,1.90
2022-08-22T19:02:42.162Z,1.75
2022-08-22T19:05:33.980Z,1.90
2022-08-22T19:08:01.003Z,1.90
2022-08-22T19:11:05.154Z,1.70
2022-08-22T19:13:37.983Z,1.90
2022-08-22T19:16:41.926Z,1.75
2022-08-22T19:19:17.665Z,1.88
2022-08-22T19:22:23.388Z,1.80
2022-08-22T19:25:19.400Z,1.80
2022-08-22T19:28:08.964Z,2.08
2022-08-22T19:30:52.513Z,2.20
2022-08-22T19:33:34.653Z,2.22
2022-08-22T19:36:31.326Z,2.20
2022-08-22T19:38:58.040Z,2.30
2022-08-22T19:41:43.809Z,2.47
2022-08-22T19:44:20.808Z,2.50
2022-08-22T19:47:03.285Z,2.38
2022-08-22T19:49:37.639Z,2.10
2022-08-22T19:52:12.114Z,2.47
2022-08-22T19:54:57.211Z,2.45
2022-08-22T19:57:54.037Z,2.17
2022-08-22T20:00:42.698Z,2.45
2022-08-22T20:03:19.018Z,2.05
2022-08-22T20:06:40.847Z,2.00
2022-08-22T20:09:25.601Z,2.38
2022-08-22T20:12:13.251Z,2.17
2022-08-22T20:14:44.572Z,1.90
2022-08-22T20:17:11.236Z,2.30
2022-08-22T20:19:41.011Z,2.10
2022-08-22T20:22:18.074Z,2.15
2022-08-22T20:24:50.702Z,2.33
2022-08-22T20:27:22.874Z,1.98
2022-08-22T20:30:03.500Z,2.17
2022-08-22T20:32:37.959Z,2.00
2022-08-22T20:35:06.405Z,1.88
2022-08-22T20:38:05.139Z,2.22
2022-08-22T20:40:54.681Z,2.28
2022-08-22T20:43:52.175Z,2.03
2022-08-22T20:46:46.291Z,2.20
2022-08-22T20:49:26.168Z,2.17
2022-08-22T20:51:54.918Z,1.90
2022-08-22T20:54:25.197Z,2.20
2022-08-22T20:56:56.055Z,2.00
2022-08-22T20:59:41.862Z,1.98
2022-08-22T21:02:15.142Z,2.00
2022-08-22T21:04:48.260Z,2.10
2022-08-22T21:07:29.237Z,2.10
2022-08-22T21:10:22.642Z,2.22
2022-08-22T21:13:11.304Z,2.05
2022-08-22T21:15:44.658Z,2.10
2022-08-22T21:18:14.205Z,2.00
2022-08-22T21:20:42.030Z,2.13
2022-08-22T21:23:15.581Z,2.08
2022-08-22T21:26:01.509Z,2.28
2022-08-22T21:28:32.272Z,2.35
2022-08-22T21:31:07.739Z,2.10
2022-08-22T21:33:34.789Z,2.30
2022-08-22T21:36:02.556Z,2.00
2022-08-22T21:38:29.465Z,2.45
2022-08-22T21:41:02.091Z,2.50
2022-08-22T21:43:36.953Z,2.70
2022-08-22T21:46:06.165Z,2.40
2022-08-22T21:48:40.878Z,2.70
2022-08-22T21:51:28.465Z,2.20
2022-08-22T21:54:20.077Z,3.05
2022-08-22T21:56:48.289Z,2.28
2022-08-22T21:59:49.312Z,2.95
2022-08-22T22:02:39.671Z,2.70
2022-08-22T22:05:17.856Z,2.67
2022-08-22T22:07:46.880Z,2.38
2022-08-22T22:10:17.405Z,2.38
2022-08-22T22:12:47.269Z,2.25
2022-08-22T22:15:18.041Z,2.53
2022-08-22T22:17:45.253Z,2.67
2022-08-22T22:20:15.906Z,2.85
2022-08-22T22:22:45.900Z,2.85
2022-08-22T22:25:41.291Z,2.78
2022-08-22T22:28:22.055Z,2.28
2022-08-22T22:30:51.523Z,2.85
2022-08-22T22:33:22.405Z,2.80
2022-08-22T22:35:50.833Z,2.80
2022-08-22T22:38:21.973Z,2.85
2022-08-22T22:40:50.981Z,2.88
2022-08-22T22:43:17.698Z,2.50
2022-08-22T22:45:44.551Z,2.33
2022-08-22T22:48:11.757Z,2.65
2022-08-22T22:50:44.997Z,2.88
2022-08-22T22:53:12.197Z,2.72
2022-08-22T22:56:00.271Z,2.85
2022-08-22T22:58:28.663Z,2.60
2022-08-22T23:00:56.045Z,2.83
2022-08-22T23:03:23.597Z,3.03
2022-08-22T23:05:50.563Z,2.88
2022-08-22T23:08:18.127Z,2.90
2022-08-22T23:10:44.746Z,2.70
2022-08-22T23:13:11.490Z,3.05
2022-08-22T23:15:38.195Z,2.90
2022-08-22T23:18:04.941Z,2.70
2022-08-22T23:20:31.857Z,3.15
2022-08-22T23:22:59.710Z,3.15
2022-08-22T23:25:27.084Z,3.45
2022-08-22T23:27:54.459Z,3.13
2022-08-22T23:30:22.252Z,3.05
2022-08-22T23:32:49.078Z,3.13
2022-08-22T23:35:15.961Z,3.40
2022-08-22T23:37:42.639Z,3.17
2022-08-22T23:40:10.333Z,3.28
2022-08-22T23:42:37.071Z,3.45
2022-08-22T23:45:04.554Z,3.20
2022-08-22T23:47:31.362Z,3.15
2022-08-22T23:49:58.122Z,2.85
2022-08-22T23:52:25.703Z,3.08
2022-08-22T23:54:55.643Z,2.80
2022-08-22T23:57:26.293Z,2.85
2022-08-22T23:59:57.489Z,3.17
